createdAt,value
2022-09-15T00:02:10.301Z,21.87
2022-09-15T00:04:36.749Z,21.88
2022-09-15T00:07:03.054Z,21.87
2022-09-15T00:09:29.371Z,21.85
2022-09-15T00:11:55.688Z,21.85
2022-09-15T00:14:21.993Z,21.86
2022-09-15T00:16:48.330Z,21.85
2022-09-15T00:19:14.694Z,21.85
2022-09-15T00:21:41.116Z,21.84
2022-09-15T00:24:07.421Z,21.84
2022-09-15T00:26:33.718Z,21.84
2022-09-15T00:29:00.029Z,21.84
2022-09-15T00:31:28.951Z,21.85
2022-09-15T00:33:56.710Z,21.86
2022-09-15T00:36:23.141Z,21.84
2022-09-15T00:38:49.467Z,21.84
2022-09-15T00:41:16.945Z,21.83
2022-09-15T00:43:45.946Z,21.84
2022-09-15T00:46:12.576Z,21.84
2022-09-15T00:48:44.213Z,21.84
2022-09-15T00:51:10.526Z,21.85
2022-09-15T00:53:36.877Z,21.84
2022-09-15T00:56:03.252Z,21.85
2022-09-15T00:58:30.953Z,21.84
2022-09-15T01:00:58.266Z,21.84
2022-09-15T01:03:24.719Z,21.84
2022-09-15T01:05:53.625Z,21.83
2022-09-15T01:08:26.815Z,21.82
2022-09-15T01:10:53.121Z,21.83
2022-09-15T01:13:19.430Z,21.84
2022-09-15T01:16:05.442Z,21.82
2022-09-15T01:18:51.247Z,21.82
2022-09-15T01:21:34.919Z,21.82
2022-09-15T01:24:20.120Z,21.82
2022-09-15T01:26:54.160Z,21.81
2022-09-15T01:29:38.329Z,21.81
2022-09-15T01:32:42.056Z,21.81
2022-09-15T01:35:08.295Z,21.80
2022-09-15T01:37:36.885Z,21.81
2022-09-15T01:40:03.351Z,21.81
2022-09-15T01:42:29.925Z,21.80
2022-09-15T01:44:57.930Z,21.80
2022-09-15T01:47:24.273Z,21.79
2022-09-15T01:49:51.197Z,21.79
2022-09-15T01:52:17.937Z,21.79
2022-09-15T01:54:48.681Z,21.79
2022-09-15T01:57:21.186Z,21.80
2022-09-15T01:59:48.033Z,21.79
2022-09-15T02:02:15.828Z,21.78
2022-09-15T02:04:47.206Z,21.80
2022-09-15T02:07:15.421Z,21.78
2022-09-15T02:09:48.445Z,21.78
2022-09-15T02:12:19.872Z,21.78
2022-09-15T02:14:55.951Z,21.77
2022-09-15T02:17:22.345Z,21.78
2022-09-15T02:19:53.774Z,21.77
2022-09-15T02:22:23.278Z,21.78
2022-09-15T02:24:57.204Z,21.77
2022-09-15T02:27:24.276Z,21.77
2022-09-15T02:29:51.911Z,21.76
2022-09-15T02:32:18.773Z,21.75
2022-09-15T02:34:46.069Z,21.75
2022-09-15T02:37:12.376Z,21.75
2022-09-15T02:39:39.838Z,21.74
2022-09-15T02:42:06.238Z,21.75
2022-09-15T02:44:32.800Z,21.75
2022-09-15T02:46:59.369Z,21.73
2022-09-15T02:49:25.705Z,21.73
2022-09-15T02:51:52.018Z,21.75
2022-09-15T02:54:18.832Z,21.74
2022-09-15T02:56:45.249Z,21.74
2022-09-15T02:59:11.598Z,21.74
2022-09-15T03:01:38.924Z,21.74
2022-09-15T03:04:05.278Z,21.73
2022-09-15T03:06:34.715Z,21.73
2022-09-15T03:09:02.719Z,21.73
2022-09-15T03:11:29.057Z,21.72
2022-09-15T03:13:56.130Z,21.72
2022-09-15T03:16:22.517Z,21.73
2022-09-15T03:18:48.890Z,21.72
2022-09-15T03:21:15.513Z,21.71
2022-09-15T03:23:41.911Z,21.72
2022-09-15T03:26:09.094Z,21.71
2022-09-15T03:28:35.733Z,21.71
2022-09-15T03:31:02.100Z,21.71
2022-09-15T03:33:29.707Z,21.71
2022-09-15T03:35:56.025Z,21.70
2022-09-15T03:38:22.342Z,21.71
2022-09-15T03:41:07.699Z,21.70
2022-09-15T03:43:34.089Z,21.69
2022-09-15T03:46:00.492Z,21.69
2022-09-15T03:48:26.911Z,21.69
2022-09-15T03:50:53.243Z,21.70
2022-09-15T03:53:20.095Z,21.71
2022-09-15T03:55:46.451Z,21.70
2022-09-15T03:58:12.768Z,21.68
2022-09-15T04:00:39.261Z,21.68
2022-09-15T04:03:06.704Z,21.68
2022-09-15T04:05:33.075Z,21.68
2022-09-15T04:07:59.399Z,21.68
2022-09-15T04:10:25.921Z,21.67
2022-09-15T04:12:52.490Z,21.66
2022-09-15T04:15:19.249Z,21.66
2022-09-15T04:17:45.696Z,21.67
2022-09-15T04:20:12.041Z,21.67
2022-09-15T04:22:38.364Z,21.66
2022-09-15T04:25:04.765Z,21.66
2022-09-15T04:27:34.302Z,21.66
2022-09-15T04:30:00.679Z,21.65
2022-09-15T04:32:28.202Z,21.64
2022-09-15T04:34:54.527Z,21.66
2022-09-15T04:37:20.844Z,21.63
2022-09-15T04:39:47.782Z,21.63
2022-09-15T04:42:14.186Z,21.41
2022-09-15T04:44:40.845Z,21.47
2022-09-15T04:47:07.334Z,21.55
2022-09-15T04:49:33.790Z,21.64
2022-09-15T04:52:00.105Z,21.69
2022-09-15T04:54:26.673Z,21.71
2022-09-15T04:56:52.985Z,21.66
2022-09-15T04:59:19.388Z,21.66
2022-09-15T05:01:45.781Z,21.67
2022-09-15T05:04:12.133Z,21.69
2022-09-15T05:06:38.494Z,21.70
2022-09-15T05:09:09.782Z,21.70
2022-09-15T05:11:36.693Z,21.71
2022-09-15T05:14:03.394Z,21.69
2022-09-15T05:16:29.743Z,21.69
2022-09-15T05:18:56.766Z,21.70
2022-09-15T05:21:23.129Z,21.70
2022-09-15T05:23:49.566Z,21.71
2022-09-15T05:26:16.690Z,21.69
2022-09-15T05:28:43.365Z,22.11
2022-09-15T05:31:10.652Z,22.26
2022-09-15T05:33:37.341Z,22.34
2022-09-15T05:36:03.908Z,22.40
2022-09-15T05:38:30.929Z,22.42
2022-09-15T05:41:03.345Z,22.47
2022-09-15T05:43:33.931Z,22.46
2022-09-15T05:46:00.287Z,22.48
2022-09-15T05:48:26.821Z,22.55
2022-09-15T05:50:53.513Z,22.56
2022-09-15T05:53:19.827Z,22.58
2022-09-15T05:55:46.211Z,22.61
2022-09-15T05:58:12.536Z,22.64
2022-09-15T06:00:38.853Z,22.54
2022-09-15T06:03:05.196Z,22.56
2022-09-15T06:05:31.554Z,22.63
2022-09-15T06:07:57.864Z,22.69
2022-09-15T06:10:27.116Z,22.68
2022-09-15T06:12:53.489Z,22.71
2022-09-15T06:15:20.213Z,22.72
2022-09-15T06:17:46.513Z,22.69
2022-09-15T06:20:12.825Z,22.69
2022-09-15T06:22:39.137Z,22.61
2022-09-15T06:25:05.857Z,22.56
2022-09-15T06:27:32.175Z,22.52
2022-09-15T06:29:58.478Z,22.66
2022-09-15T06:32:24.798Z,22.59
2022-09-15T06:34:51.123Z,22.50
2022-09-15T06:37:17.462Z,22.45
2022-09-15T06:39:44.238Z,22.44
2022-09-15T06:42:13.804Z,22.47
2022-09-15T06:44:41.273Z,22.49
2022-09-15T06:47:07.658Z,22.49
2022-09-15T06:49:34.007Z,22.45
2022-09-15T06:52:02.434Z,22.48
2022-09-15T06:54:28.777Z,22.46
2022-09-15T06:56:55.094Z,22.45
2022-09-15T06:59:23.841Z,22.41
2022-09-15T07:01:54.214Z,22.43
2022-09-15T07:04:20.608Z,22.27
2022-09-15T07:06:46.951Z,22.29
2022-09-15T07:09:13.365Z,22.55
2022-09-15T07:11:39.715Z,22.61
2022-09-15T07:14:06.046Z,22.35
2022-09-15T07:16:32.435Z,22.45
2022-09-15T07:19:01.189Z,22.29
2022-09-15T07:21:27.502Z,22.30
2022-09-15T07:23:54.139Z,22.25
2022-09-15T07:26:21.225Z,21.86
2022-09-15T07:28:49.827Z,21.69
2022-09-15T07:31:16.654Z,22.09
2022-09-15T07:33:43.043Z,22.14
2022-09-15T07:36:09.449Z,21.80
2022-09-15T07:38:35.773Z,21.58
2022-09-15T07:41:02.769Z,21.59
2022-09-15T07:43:29.098Z,21.57
2022-09-15T07:45:58.573Z,21.71
2022-09-15T07:48:26.607Z,21.81
2022-09-15T07:50:53.059Z,21.87
2022-09-15T07:53:19.379Z,21.88
2022-09-15T07:55:45.710Z,21.87
2022-09-15T07:58:12.018Z,21.90
2022-09-15T08:00:39.140Z,21.88
2022-09-15T08:03:05.491Z,21.88
2022-09-15T08:05:36.250Z,21.89
2022-09-15T08:08:05.494Z,21.89
2022-09-15T08:10:31.809Z,21.91
2022-09-15T08:13:00.870Z,21.91
2022-09-15T08:15:27.195Z,21.94
2022-09-15T08:17:53.510Z,21.93
2022-09-15T08:20:19.847Z,21.94
2022-09-15T08:22:46.231Z,21.91
2022-09-15T08:25:12.855Z,21.95
2022-09-15T08:27:39.365Z,21.95
2022-09-15T08:30:06.012Z,22.52
2022-09-15T08:32:32.329Z,22.69
2022-09-15T08:34:58.690Z,22.61
2022-09-15T08:37:25.005Z,22.48
2022-09-15T08:39:52.000Z,22.68
2022-09-15T08:42:18.709Z,22.74
2022-09-15T08:44:45.050Z,22.83
2022-09-15T08:47:12.755Z,22.81
2022-09-15T08:49:51.214Z,22.76
2022-09-15T08:52:26.809Z,22.78
2022-09-15T08:54:53.463Z,22.73
2022-09-15T08:57:19.953Z,22.61
2022-09-15T08:59:46.265Z,22.56
2022-09-15T09:02:23.530Z,22.75
2022-09-15T09:05:09.060Z,22.95
2022-09-15T09:07:38.307Z,22.67
2022-09-15T09:10:11.113Z,22.63
2022-09-15T09:12:41.245Z,22.65
2022-09-15T09:15:24.641Z,22.58
2022-09-15T09:17:50.936Z,22.64
2022-09-15T09:20:20.521Z,22.79
2022-09-15T09:22:46.829Z,22.86
2022-09-15T09:25:26.526Z,22.87
2022-09-15T09:27:53.347Z,22.94
2022-09-15T09:30:20.234Z,22.81
2022-09-15T09:32:47.925Z,22.72
2022-09-15T09:35:17.113Z,22.86
2022-09-15T09:37:43.665Z,22.99
2022-09-15T09:40:13.946Z,22.97
2022-09-15T09:42:40.350Z,22.75
2022-09-15T09:45:07.486Z,22.34
2022-09-15T09:47:34.860Z,22.26
2022-09-15T09:50:01.166Z,22.03
2022-09-15T09:52:34.219Z,22.02
2022-09-15T09:55:01.544Z,22.15
2022-09-15T09:57:30.962Z,22.13
2022-09-15T09:59:57.264Z,22.09
2022-09-15T10:02:24.794Z,22.17
2022-09-15T10:05:15.994Z,22.17
2022-09-15T10:07:43.748Z,22.16
2022-09-15T10:10:18.230Z,22.16
2022-09-15T10:12:44.539Z,22.15
2022-09-15T10:15:29.865Z,22.13
2022-09-15T10:17:56.188Z,22.13
2022-09-15T10:20:22.786Z,21.96
2022-09-15T10:22:49.094Z,22.00
2022-09-15T10:25:21.123Z,22.10
2022-09-15T10:28:06.318Z,22.16
2022-09-15T10:30:32.639Z,22.21
2022-09-15T10:33:10.002Z,22.21
2022-09-15T10:35:36.453Z,22.23
2022-09-15T10:38:09.473Z,22.23
2022-09-15T10:40:41.550Z,22.24
2022-09-15T10:43:20.213Z,22.22
2022-09-15T10:45:50.957Z,22.21
2022-09-15T10:48:23.223Z,22.20
2022-09-15T10:50:49.454Z,22.19
2022-09-15T10:53:17.164Z,22.18
2022-09-15T10:55:52.645Z,22.17
2022-09-15T10:58:39.980Z,22.17
2022-09-15T11:01:15.978Z,22.17
2022-09-15T11:03:47.305Z,22.17
2022-09-15T11:06:33.813Z,22.18
2022-09-15T11:09:09.443Z,22.19
2022-09-15T11:11:44.377Z,22.19
2022-09-15T11:14:20.965Z,22.17
2022-09-15T11:17:06.936Z,22.17
2022-09-15T11:19:43.407Z,22.18
2022-09-15T11:22:39.145Z,22.12
2022-09-15T11:25:10.714Z,22.08
2022-09-15T11:27:39.928Z,22.12
2022-09-15T11:30:18.877Z,22.15
2022-09-15T11:32:46.836Z,22.16
2022-09-15T11:35:33.350Z,22.16
2022-09-15T11:38:03.294Z,22.16
2022-09-15T11:40:33.286Z,22.10
2022-09-15T11:43:00.428Z,22.15
2022-09-15T11:45:27.776Z,22.15
2022-09-15T11:47:56.357Z,22.16
2022-09-15T11:50:35.785Z,22.15
2022-09-15T11:53:16.689Z,22.16
2022-09-15T11:55:43.578Z,22.17
2022-09-15T11:58:22.148Z,22.08
2022-09-15T12:01:03.103Z,22.14
2022-09-15T12:03:32.017Z,22.16
2022-09-15T12:06:00.083Z,22.17
2022-09-15T12:08:29.990Z,22.20
2022-09-15T12:10:56.591Z,22.23
2022-09-15T12:13:24.028Z,22.47
2022-09-15T12:15:50.677Z,22.54
2022-09-15T12:18:38.569Z,22.37
2022-09-15T12:21:05.509Z,22.69
2022-09-15T12:23:32.820Z,23.18
2022-09-15T12:26:15.672Z,23.31
2022-09-15T12:28:51.110Z,23.25
2022-09-15T12:31:23.493Z,23.48
2022-09-15T12:33:53.388Z,23.46
2022-09-15T12:36:29.634Z,23.47
2022-09-15T12:38:55.951Z,23.53
2022-09-15T12:41:22.637Z,23.60
2022-09-15T12:43:52.988Z,23.54
2022-09-15T12:46:19.423Z,23.63
2022-09-15T12:48:47.514Z,23.69
2022-09-15T12:51:20.666Z,23.77
2022-09-15T12:53:50.799Z,23.76
2022-09-15T12:56:24.569Z,23.70
2022-09-15T12:58:50.965Z,22.97
2022-09-15T13:01:23.270Z,22.75
2022-09-15T13:03:49.594Z,22.73
2022-09-15T13:06:17.082Z,22.69
2022-09-15T13:08:44.653Z,22.69
2022-09-15T13:11:10.897Z,22.69
2022-09-15T13:13:56.280Z,22.67
2022-09-15T13:16:27.436Z,22.57
2022-09-15T13:19:03.475Z,22.52
2022-09-15T13:21:29.790Z,22.44
2022-09-15T13:23:56.101Z,22.27
2022-09-15T13:26:23.973Z,22.31
2022-09-15T13:28:52.731Z,22.25
2022-09-15T13:31:34.403Z,22.23
2022-09-15T13:40:00.791Z,22.13
2022-09-15T13:42:36.930Z,22.27
2022-09-15T13:45:16.519Z,22.35
2022-09-15T13:47:58.789Z,22.71
2022-09-15T13:50:31.171Z,23.16
2022-09-15T13:52:57.549Z,23.36
2022-09-15T13:55:26.181Z,23.38
2022-09-15T14:00:48.240Z,23.46
2022-09-15T14:03:17.328Z,23.50
2022-09-15T14:05:43.807Z,23.50
2022-09-15T14:08:13.948Z,23.50
2022-09-15T14:10:51.227Z,23.52
2022-09-15T14:13:17.810Z,23.54
2022-09-15T14:16:03.294Z,23.52
2022-09-15T14:18:29.764Z,23.57
2022-09-15T14:21:00.365Z,23.57
2022-09-15T14:23:26.688Z,23.52
2022-09-15T14:25:53.010Z,23.58
2022-09-15T14:28:21.345Z,23.46
2022-09-15T14:30:47.741Z,23.55
2022-09-15T14:33:15.519Z,23.52
2022-09-15T14:35:41.963Z,23.45
2022-09-15T14:38:18.273Z,23.60
2022-09-15T14:40:44.699Z,23.59
2022-09-15T14:43:27.289Z,23.61
2022-09-15T14:45:57.772Z,23.61
2022-09-15T14:48:28.097Z,23.62
2022-09-15T14:50:56.834Z,23.66
2022-09-15T14:53:23.168Z,23.68
2022-09-15T14:55:53.253Z,23.69
2022-09-15T14:58:23.815Z,23.83
2022-09-15T15:00:58.104Z,23.95
2022-09-15T15:03:27.954Z,23.89
2022-09-15T15:06:02.463Z,23.88
2022-09-15T15:08:35.446Z,23.86
2022-09-15T15:11:01.928Z,23.83
2022-09-15T15:13:28.255Z,23.88
2022-09-15T15:15:54.833Z,23.82
2022-09-15T15:18:38.452Z,23.75
2022-09-15T15:21:05.250Z,23.67
2022-09-15T15:23:32.187Z,23.53
2022-09-15T15:26:23.094Z,23.66
2022-09-15T15:28:49.427Z,23.67
2022-09-15T15:31:19.263Z,23.63
2022-09-15T15:33:49.231Z,23.60
2022-09-15T15:36:15.711Z,23.71
2022-09-15T15:38:47.240Z,23.71
2022-09-15T15:41:18.869Z,23.62
2022-09-15T15:43:54.493Z,23.60
2022-09-15T15:46:40.793Z,23.52
2022-09-15T15:49:10.828Z,23.53
2022-09-15T15:51:37.264Z,23.57
2022-09-15T15:54:03.650Z,23.65
2022-09-15T15:56:31.194Z,23.38
2022-09-15T15:58:59.903Z,23.51
2022-09-15T16:01:26.284Z,23.66
2022-09-15T16:03:52.676Z,23.71
2022-09-15T16:06:18.995Z,23.73
2022-09-15T16:08:45.318Z,23.71
2022-09-15T16:11:12.377Z,23.72
2022-09-15T16:13:38.834Z,23.67
2022-09-15T16:16:18.255Z,23.68
2022-09-15T16:18:44.866Z,23.61
2022-09-15T16:21:13.711Z,23.77
2022-09-15T16:23:40.115Z,23.76
2022-09-15T16:26:09.455Z,23.78
2022-09-15T16:28:35.766Z,23.82
2022-09-15T16:31:02.194Z,23.76
2022-09-15T16:33:28.686Z,23.54
2022-09-15T16:36:06.666Z,23.60
2022-09-15T16:38:33.311Z,23.67
2022-09-15T16:40:59.843Z,23.68
2022-09-15T16:43:26.219Z,23.61
2022-09-15T16:45:52.546Z,23.58
2022-09-15T16:48:18.896Z,23.55
2022-09-15T16:51:01.672Z,23.66
2022-09-15T16:53:33.022Z,23.68
2022-09-15T16:55:59.390Z,23.47
2022-09-15T16:58:25.708Z,23.19
2022-09-15T17:00:52.812Z,23.01
2022-09-15T17:03:20.218Z,22.96
2022-09-15T17:05:48.518Z,22.88
2022-09-15T17:08:15.171Z,22.86
2022-09-15T17:10:41.501Z,22.87
2022-09-15T17:13:07.833Z,22.84
2022-09-15T17:15:34.951Z,22.91
2022-09-15T17:18:01.388Z,23.23
2022-09-15T17:20:27.690Z,23.33
2022-09-15T17:22:54.080Z,23.38
2022-09-15T17:25:24.483Z,23.28
2022-09-15T17:27:51.550Z,23.22
2022-09-15T17:30:18.223Z,23.17
2022-09-15T17:32:44.535Z,23.23
2022-09-15T17:35:31.180Z,23.16
2022-09-15T17:37:57.507Z,22.94
2022-09-15T17:40:23.843Z,22.83
2022-09-15T17:42:50.194Z,22.86
2022-09-15T17:45:35.431Z,22.82
2022-09-15T17:48:02.401Z,22.61
2022-09-15T17:50:29.339Z,22.59
2022-09-15T17:52:55.725Z,22.66
2022-09-15T17:55:21.995Z,22.75
2022-09-15T17:57:48.703Z,22.73
2022-09-15T18:00:15.650Z,22.74
2022-09-15T18:02:42.324Z,22.71
2022-09-15T18:05:38.015Z,22.71
2022-09-15T18:08:04.986Z,22.68
2022-09-15T18:10:31.686Z,22.66
2022-09-15T18:12:58.022Z,22.65
2022-09-15T18:15:25.994Z,22.62
2022-09-15T18:17:52.910Z,22.62
2022-09-15T18:20:20.552Z,22.59
2022-09-15T18:22:47.110Z,22.59
2022-09-15T18:25:15.041Z,22.57
2022-09-15T18:27:41.353Z,22.55
2022-09-15T18:30:07.952Z,22.52
2022-09-15T18:32:34.314Z,22.54
2022-09-15T18:35:00.646Z,22.53
2022-09-15T18:37:26.985Z,22.51
2022-09-15T18:39:53.427Z,22.50
2022-09-15T18:42:19.837Z,22.50
2022-09-15T18:44:46.176Z,22.49
2022-09-15T18:47:13.098Z,22.47
2022-09-15T18:49:39.460Z,22.48
2022-09-15T18:52:05.791Z,22.44
2022-09-15T18:54:34.794Z,22.45
2022-09-15T18:57:01.120Z,22.45
2022-09-15T18:59:27.451Z,22.43
2022-09-15T19:01:53.855Z,22.41
2022-09-15T19:04:20.318Z,22.40
2022-09-15T19:06:46.623Z,22.41
2022-09-15T19:09:12.962Z,22.42
2022-09-15T19:11:39.285Z,22.40
2022-09-15T19:14:05.606Z,22.42
2022-09-15T19:16:53.798Z,22.42
2022-09-15T19:19:19.522Z,22.36
2022-09-15T19:21:45.838Z,22.36
2022-09-15T19:24:12.153Z,22.37
2022-09-15T19:26:38.546Z,22.34
2022-09-15T19:29:04.967Z,22.37
2022-09-15T19:31:31.279Z,22.35
2022-09-15T19:33:57.634Z,22.34
2022-09-15T19:36:28.468Z,22.34
2022-09-15T19:38:55.215Z,22.35
2022-09-15T19:41:21.550Z,22.34
2022-09-15T19:43:47.898Z,22.33
2022-09-15T19:46:15.102Z,22.34
2022-09-15T19:48:44.529Z,22.29
2022-09-15T19:51:15.821Z,22.27
2022-09-15T19:53:42.155Z,22.28
2022-09-15T19:56:12.062Z,22.27
2022-09-15T19:58:38.385Z,22.25
2022-09-15T20:01:04.722Z,22.23
2022-09-15T20:03:31.065Z,22.25
2022-09-15T20:05:57.861Z,22.25
2022-09-15T20:08:24.314Z,22.24
2022-09-15T20:10:50.618Z,22.26
2022-09-15T20:13:17.000Z,22.24
2022-09-15T20:15:43.519Z,22.21
2022-09-15T20:18:11.423Z,22.23
2022-09-15T20:20:38.890Z,22.23
2022-09-15T20:23:05.262Z,22.23
2022-09-15T20:25:32.261Z,22.23
2022-09-15T20:27:58.658Z,22.23
2022-09-15T20:30:25.032Z,22.22
2022-09-15T20:32:51.716Z,22.21
2022-09-15T20:35:18.039Z,22.18
2022-09-15T20:37:44.407Z,22.22
2022-09-15T20:40:10.816Z,22.21
2022-09-15T20:42:37.161Z,22.21
2022-09-15T20:45:03.983Z,22.21
2022-09-15T20:47:30.285Z,22.20
2022-09-15T20:49:56.597Z,22.19
2022-09-15T20:52:25.814Z,22.19
2022-09-15T20:54:54.314Z,22.20
2022-09-15T20:57:20.618Z,22.20
2022-09-15T20:59:46.962Z,22.14
2022-09-15T21:02:13.312Z,22.16
2022-09-15T21:04:39.855Z,22.14
2022-09-15T21:07:06.197Z,22.15
2022-09-15T21:09:32.506Z,22.19
2022-09-15T21:11:59.985Z,22.17
2022-09-15T21:14:26.302Z,22.16
2022-09-15T21:16:52.735Z,22.16
2022-09-15T21:19:19.113Z,22.16
2022-09-15T21:21:45.544Z,22.15
2022-09-15T21:24:11.855Z,22.13
2022-09-15T21:26:57.772Z,22.14
2022-09-15T21:29:24.093Z,22.14
2022-09-15T21:31:50.466Z,22.15
2022-09-15T21:34:17.004Z,22.15
2022-09-15T21:36:43.337Z,22.15
2022-09-15T21:39:10.025Z,22.14
2022-09-15T21:41:36.374Z,22.14
2022-09-15T21:44:02.693Z,22.12
2022-09-15T21:46:29.411Z,22.12
2022-09-15T21:48:55.966Z,22.12
2022-09-15T21:51:24.881Z,22.11
2022-09-15T21:53:52.099Z,22.12
2022-09-15T21:56:18.414Z,22.12
2022-09-15T21:58:44.729Z,22.08
2022-09-15T22:01:12.423Z,22.09
2022-09-15T22:03:42.055Z,22.10
2022-09-15T22:06:11.705Z,22.09
2022-09-15T22:08:38.500Z,22.10
2022-09-15T22:11:04.823Z,22.11
2022-09-15T22:13:31.125Z,22.11
2022-09-15T22:16:03.789Z,22.08
2022-09-15T22:18:30.147Z,22.08
2022-09-15T22:21:22.915Z,22.08
2022-09-15T22:23:49.855Z,22.08
2022-09-15T22:26:17.440Z,22.07
2022-09-15T22:28:44.071Z,22.06
2022-09-15T22:31:10.999Z,22.06
2022-09-15T22:33:37.517Z,22.07
2022-09-15T22:36:03.867Z,22.09
2022-09-15T22:38:30.298Z,22.07
2022-09-15T22:40:56.657Z,22.04
2022-09-15T22:43:22.974Z,22.00
2022-09-15T22:45:49.560Z,22.02
2022-09-15T22:48:15.963Z,22.02
2022-09-15T22:50:43.561Z,22.04
2022-09-15T22:53:09.956Z,22.03
2022-09-15T22:55:36.269Z,22.02
2022-09-15T22:58:02.591Z,21.99
2022-09-15T23:00:28.966Z,21.98
2022-09-15T23:02:56.113Z,21.99
2022-09-15T23:05:22.437Z,21.95
2022-09-15T23:07:48.750Z,21.99
2022-09-15T23:10:15.086Z,21.95
2022-09-15T23:12:41.461Z,21.97
2022-09-15T23:15:08.023Z,21.98
2022-09-15T23:17:34.393Z,21.98
2022-09-15T23:20:00.831Z,21.98
2022-09-15T23:22:27.158Z,21.95
2022-09-15T23:24:53.475Z,21.94
2022-09-15T23:27:19.822Z,21.95
2022-09-15T23:29:46.192Z,21.96
2022-09-15T23:32:12.510Z,21.99
2022-09-15T23:34:38.846Z,21.95
2022-09-15T23:37:05.158Z,21.95
2022-09-15T23:39:31.479Z,21.96
2022-09-15T23:41:57.799Z,21.95
2022-09-15T23:44:24.160Z,21.94
2022-09-15T23:46:50.494Z,21.95
2022-09-15T23:49:18.823Z,21.96
2022-09-15T23:51:45.261Z,21.94
2022-09-15T23:54:11.574Z,21.96
2022-09-15T23:56:37.896Z,21.94
2022-09-15T23:59:04.204Z,21.93
